Glyndon, Minnesota
Current Conditions -  °F | °C
As of 10:11 AM on Wednesday 28 Jan 2015 (Local Time) from KJKJ Reporting Station
Haze Haze  
Wind Chill: 24°   Ceiling: 700
Heat Index: 34°   Visibility: 5mi
Dew Point: 34°   Wind: 15mph
Humidity: 100%   Direction: 170°S
Pressure: 29.8"   Gusts: 24mph
Location:  46.88°N, 96.58°W
Report Text: KJKJ 281611Z AUTO 17013G21KT 5SM BR OVC007 01/01 A2980 RMK AO2
Loading
Personal Weather Stations






























Interactive Weather Map New forecast layout! Learn more

10-Day Weather Forecast

Advertisements
Track Severe Weather on mobile